Time;durP1;ratioP1;P1;durP2;ratioP2;P2;SDS_P1;SDS_P2;PMS_P1;PMS_P2;Temp;Humidity;BMP_temperature;BMP_pressure;BME280_temperature;BME280_humidity;BME280_pressure;Samples;Min_cycle;Max_cycle;Signal;HPM_P1;HPM_P2
2022/06/15 00:00:06;;;;;;;9.70;3.33;;;;;;;;;;5053487;28;20108;-69
2022/06/15 00:02:33;;;;;;;6.85;3.03;;;;;;;;;;5053447;28;20028;-70
2022/06/15 00:04:59;;;;;;;7.18;2.35;;;;;;;;;;5053254;28;20032;-70
2022/06/15 00:07:25;;;;;;;6.88;2.60;;;;;;;;;;5051897;28;20440;-70
2022/06/15 00:09:51;;;;;;;9.40;2.60;;;;;;;;;;5053394;28;20478;-70
2022/06/15 00:12:17;;;;;;;10.23;3.13;;;;;;;;;;5053028;28;20037;-71
2022/06/15 00:14:42;;;;;;;9.95;3.80;;;;;;;;;;5053216;28;20020;-69
2022/06/15 00:17:08;;;;;;;8.95;3.40;;;;;;;;;;5052706;28;20057;-71
2022/06/15 00:19:34;;;;;;;9.40;4.68;;;;;;;;;;5053142;28;20025;-70
2022/06/15 00:22:00;;;;;;;10.93;3.95;;;;;;;;;;5053222;28;20024;-70
2022/06/15 00:24:26;;;;;;;7.28;3.10;;;;;;;;;;5053059;28;20397;-70
2022/06/15 00:26:52;;;;;;;9.73;3.42;;;;;;;;;;5052798;28;20479;-71
2022/06/15 00:29:19;;;;;;;8.93;3.83;;;;;;;;;;5052466;28;20052;-70
2022/06/15 00:31:44;;;;;;;7.88;2.88;;;;;;;;;;5052544;28;20025;-70
2022/06/15 00:34:10;;;;;;;11.23;3.20;;;;;;;;;;5052709;28;20104;-69
2022/06/15 00:36:36;;;;;;;9.75;3.40;;;;;;;;;;5052420;28;20446;-69
2022/06/15 00:39:03;;;;;;;8.02;3.60;;;;;;;;;;5052684;28;20024;-69
2022/06/15 00:41:36;;;;;;;15.52;5.18;;;;;;;;;;5052936;28;20017;-72
2022/06/15 00:44:23;;;;;;;9.80;4.10;;;;;;;;;;5052696;28;20029;-70
2022/06/15 00:46:52;;;;;;;8.10;3.22;;;;;;;;;;5052485;28;20021;-70
2022/06/15 00:49:37;;;;;;;6.93;3.15;;;;;;;;;;5052937;28;20029;-70
2022/06/15 00:52:05;;;;;;;10.00;3.45;;;;;;;;;;5051210;28;20390;-70
2022/06/15 00:54:31;;;;;;;11.27;3.40;;;;;;;;;;5052618;28;20074;-70
2022/06/15 00:56:57;;;;;;;8.48;3.20;;;;;;;;;;5052014;28;20035;-69
2022/06/15 00:59:24;;;;;;;7.95;3.25;;;;;;;;;;5052061;28;20029;-70
2022/06/15 01:01:50;;;;;;;10.65;2.65;;;;;;;;;;5050947;28;20066;-70
2022/06/15 01:04:18;;;;;;;7.32;2.85;;;;;;;;;;5052235;28;20140;-70
2022/06/15 01:06:48;;;;;;;6.80;3.05;;;;;;;;;;5051893;28;20410;-70
2022/06/15 01:09:22;;;;;;;7.53;3.40;;;;;;;;;;5052384;28;20033;-72
2022/06/15 01:12:00;;;;;;;7.28;2.95;;;;;;;;;;5052171;28;20025;-69
2022/06/15 01:14:45;;;;;;;9.65;3.20;;;;;;;;;;5051583;28;20082;-69
2022/06/15 01:17:40;;;;;;;8.70;3.15;;;;;;;;;;5051649;28;20496;-70
2022/06/15 01:20:10;;;;;;;11.75;3.15;;;;;;;;;;5035271;28;20051;-69
2022/06/15 01:22:49;;;;;;;8.00;3.30;;;;;;;;;;5052169;28;20029;-69
2022/06/15 01:25:24;;;;;;;11.20;3.53;;;;;;;;;;5052010;28;20057;-69
2022/06/15 01:28:20;;;;;;;11.43;3.13;;;;;;;;;;5053100;28;20485;-71
2022/06/15 01:30:46;;;;;;;7.55;2.80;;;;;;;;;;5050729;28;20064;-71
2022/06/15 01:33:12;;;;;;;9.73;2.80;;;;;;;;;;5051771;28;20551;-70
2022/06/15 01:35:38;;;;;;;8.57;2.92;;;;;;;;;;5051548;28;20100;-70
2022/06/15 01:38:22;;;;;;;7.03;2.70;;;;;;;;;;5052292;28;20115;-70
2022/06/15 01:40:52;;;;;;;8.05;2.83;;;;;;;;;;5051550;28;20021;-69
2022/06/15 01:43:23;;;;;;;7.75;3.00;;;;;;;;;;5051727;28;20021;-69
2022/06/15 01:45:50;;;;;;;8.57;3.50;;;;;;;;;;5052257;28;20060;-70
2022/06/15 01:48:17;;;;;;;8.77;2.90;;;;;;;;;;5051630;28;20516;-70
2022/06/15 01:50:50;;;;;;;11.88;3.30;;;;;;;;;;5051575;28;20021;-70
2022/06/15 01:53:21;;;;;;;6.38;2.83;;;;;;;;;;5051691;28;20094;-69
2022/06/15 01:55:56;;;;;;;10.02;3.10;;;;;;;;;;5051589;28;20048;-69
2022/06/15 01:58:24;;;;;;;9.80;2.67;;;;;;;;;;5051884;28;20107;-70
2022/06/15 02:00:56;;;;;;;11.75;3.30;;;;;;;;;;5051695;28;20490;-70
2022/06/15 02:03:29;;;;;;;7.05;3.50;;;;;;;;;;5052017;28;20021;-70
2022/06/15 02:06:02;;;;;;;7.15;2.95;;;;;;;;;;5051433;28;20028;-70
2022/06/15 02:08:39;;;;;;;9.20;3.50;;;;;;;;;;5051679;28;20025;-70
2022/06/15 02:11:12;;;;;;;9.65;3.53;;;;;;;;;;5051494;28;20057;-71
2022/06/15 02:13:40;;;;;;;9.60;2.90;;;;;;;;;;5051426;28;20397;-71
2022/06/15 02:16:08;;;;;;;7.55;3.08;;;;;;;;;;5051200;28;20033;-70
2022/06/15 02:18:36;;;;;;;10.40;3.03;;;;;;;;;;5051697;28;20017;-70
2022/06/15 02:21:05;;;;;;;10.50;3.58;;;;;;;;;;5051380;28;20029;-71
2022/06/15 02:23:32;;;;;;;6.07;3.05;;;;;;;;;;5051544;28;20025;-70
2022/06/15 02:25:59;;;;;;;7.60;3.10;;;;;;;;;;5050873;28;20029;-70
2022/06/15 02:28:28;;;;;;;8.05;2.92;;;;;;;;;;5051229;28;20029;-70
2022/06/15 02:30:54;;;;;;;8.07;3.47;;;;;;;;;;5051308;28;20363;-70
2022/06/15 02:33:20;;;;;;;9.30;2.95;;;;;;;;;;5051241;28;20025;-70
2022/06/15 02:35:46;;;;;;;9.85;3.20;;;;;;;;;;5050933;28;20039;-69
2022/06/15 02:38:12;;;;;;;5.63;2.90;;;;;;;;;;5051321;28;20017;-69
2022/06/15 02:40:38;;;;;;;8.80;3.03;;;;;;;;;;5051110;28;20397;-70
2022/06/15 02:43:04;;;;;;;6.60;3.00;;;;;;;;;;5051135;28;20477;-69
2022/06/15 02:45:34;;;;;;;10.50;3.03;;;;;;;;;;5051027;28;20055;-71
2022/06/15 02:47:59;;;;;;;6.68;2.92;;;;;;;;;;5051166;28;20060;-69
2022/06/15 02:50:28;;;;;;;8.95;3.35;;;;;;;;;;5051083;28;20064;-70
2022/06/15 02:52:58;;;;;;;8.85;3.33;;;;;;;;;;5051560;28;20051;-71
2022/06/15 02:55:25;;;;;;;7.03;3.28;;;;;;;;;;5055108;28;20025;-72
2022/06/15 02:57:53;;;;;;;8.48;3.33;;;;;;;;;;5055676;28;20102;-70
2022/06/15 03:00:21;;;;;;;14.65;3.92;;;;;;;;;;5056718;28;20021;-70
2022/06/15 03:02:47;;;;;;;11.98;4.35;;;;;;;;;;5057174;28;20032;-70
2022/06/15 03:05:12;;;;;;;8.60;3.58;;;;;;;;;;5056584;28;20071;-70
2022/06/15 03:07:38;;;;;;;8.05;3.90;;;;;;;;;;5055689;28;20457;-71
2022/06/15 03:10:05;;;;;;;9.15;3.80;;;;;;;;;;5055622;28;20481;-71
2022/06/15 03:12:31;;;;;;;8.68;3.38;;;;;;;;;;5054971;28;20032;-70
2022/06/15 03:14:57;;;;;;;9.20;3.70;;;;;;;;;;5055811;28;20029;-71
2022/06/15 03:17:23;;;;;;;8.88;3.75;;;;;;;;;;5054305;28;20032;-70
2022/06/15 03:19:49;;;;;;;8.30;3.90;;;;;;;;;;5054518;28;20041;-70
2022/06/15 03:22:15;;;;;;;9.20;3.58;;;;;;;;;;5054585;28;20393;-70
2022/06/15 03:24:40;;;;;;;8.85;3.85;;;;;;;;;;5054258;28;20384;-70
2022/06/15 03:27:06;;;;;;;8.70;3.78;;;;;;;;;;5054337;28;20032;-69
2022/06/15 03:29:32;;;;;;;13.25;3.53;;;;;;;;;;5054315;28;20029;-70
2022/06/15 03:31:58;;;;;;;10.77;3.70;;;;;;;;;;5054779;28;20021;-70
2022/06/15 03:34:24;;;;;;;10.68;3.58;;;;;;;;;;5054512;28;20029;-72
2022/06/15 03:36:50;;;;;;;8.43;3.90;;;;;;;;;;5054608;28;20066;-69
2022/06/15 03:39:16;;;;;;;6.55;3.25;;;;;;;;;;5055129;28;20456;-70
2022/06/15 03:41:42;;;;;;;8.88;3.10;;;;;;;;;;5054926;28;20025;-73
2022/06/15 03:44:10;;;;;;;9.85;4.05;;;;;;;;;;5055894;28;20094;-72
2022/06/15 03:46:36;;;;;;;10.93;4.10;;;;;;;;;;5053673;28;20437;-70
2022/06/15 03:49:01;;;;;;;7.88;3.83;;;;;;;;;;5054167;28;20104;-71
2022/06/15 03:51:27;;;;;;;10.10;3.63;;;;;;;;;;5054206;28;20037;-71
2022/06/15 03:53:53;;;;;;;10.05;3.67;;;;;;;;;;5054620;28;20028;-70
2022/06/15 03:56:19;;;;;;;12.98;3.50;;;;;;;;;;5053801;28;20021;-71
2022/06/15 03:58:46;;;;;;;13.52;3.85;;;;;;;;;;5054099;28;20100;-70
2022/06/15 04:01:12;;;;;;;7.35;3.75;;;;;;;;;;5053447;28;20067;-69
2022/06/15 04:03:38;;;;;;;10.57;3.13;;;;;;;;;;5053620;28;20120;-69
2022/06/15 04:06:04;;;;;;;8.90;3.83;;;;;;;;;;5055535;28;20033;-70
2022/06/15 04:08:39;;;;;;;9.68;3.70;;;;;;;;;;5053625;28;20025;-69
2022/06/15 04:11:07;;;;;;;13.50;4.30;;;;;;;;;;5054057;28;20127;-71
2022/06/15 04:13:34;;;;;;;7.38;3.15;;;;;;;;;;5053624;28;20032;-70
2022/06/15 04:16:00;;;;;;;7.97;3.13;;;;;;;;;;5054570;28;20032;-70
2022/06/15 04:18:26;;;;;;;16.15;3.30;;;;;;;;;;5053304;28;20017;-70
2022/06/15 04:20:52;;;;;;;7.68;3.22;;;;;;;;;;5053281;28;20032;-70
2022/06/15 04:23:19;;;;;;;9.73;3.72;;;;;;;;;;5053432;28;20032;-70
2022/06/15 04:25:47;;;;;;;8.43;3.15;;;;;;;;;;5053522;28;20045;-71
2022/06/15 04:28:14;;;;;;;13.05;3.95;;;;;;;;;;5053208;28;20060;-70
2022/06/15 04:30:40;;;;;;;12.60;4.15;;;;;;;;;;5052594;28;20545;-70
2022/06/15 04:33:06;;;;;;;8.60;3.92;;;;;;;;;;5053010;28;20067;-70
2022/06/15 04:35:32;;;;;;;9.77;3.70;;;;;;;;;;5053006;28;20017;-71
2022/06/15 04:37:58;;;;;;;11.40;4.10;;;;;;;;;;5054638;28;20028;-70
2022/06/15 04:40:24;;;;;;;13.38;3.90;;;;;;;;;;5053005;28;20025;-72
2022/06/15 04:42:50;;;;;;;16.92;3.90;;;;;;;;;;5053598;28;20414;-71
2022/06/15 04:45:17;;;;;;;8.23;4.03;;;;;;;;;;5052716;28;20032;-71
2022/06/15 04:47:43;;;;;;;11.98;4.20;;;;;;;;;;5052995;28;20050;-69
2022/06/15 04:50:13;;;;;;;18.38;4.80;;;;;;;;;;5054106;28;20024;-71
2022/06/15 04:52:43;;;;;;;10.52;3.88;;;;;;;;;;5053187;28;20063;-72
2022/06/15 04:55:11;;;;;;;8.38;3.55;;;;;;;;;;5052875;28;20021;-71
2022/06/15 04:57:37;;;;;;;10.27;3.90;;;;;;;;;;5052280;28;20029;-69
2022/06/15 05:00:05;;;;;;;12.45;3.63;;;;;;;;;;5052697;28;20048;-72
2022/06/15 05:02:31;;;;;;;13.60;3.63;;;;;;;;;;5056916;28;20021;-70
2022/06/15 05:04:59;;;;;;;9.25;3.97;;;;;;;;;;5052699;28;20359;-71
2022/06/15 05:07:25;;;;;;;13.77;3.63;;;;;;;;;;5052124;28;20393;-71
2022/06/15 05:09:51;;;;;;;9.75;3.53;;;;;;;;;;5052528;28;20066;-70
2022/06/15 05:12:17;;;;;;;10.68;3.35;;;;;;;;;;5051066;28;20104;-69
2022/06/15 05:14:47;;;;;;;8.88;3.33;;;;;;;;;;5052359;28;20335;-72
2022/06/15 05:17:13;;;;;;;11.00;3.75;;;;;;;;;;5075843;22;20562;-75
2022/06/15 05:19:39;;;;;;;8.68;3.17;;;;;;;;;;5053500;28;20096;-75
2022/06/15 05:22:05;;;;;;;8.32;3.20;;;;;;;;;;5053820;28;20017;-74
2022/06/15 05:24:31;;;;;;;14.23;4.03;;;;;;;;;;5053245;28;20396;-76
2022/06/15 05:26:57;;;;;;;9.13;3.30;;;;;;;;;;5053740;28;20036;-76
2022/06/15 05:29:23;;;;;;;10.40;4.00;;;;;;;;;;5054657;28;20104;-74
2022/06/15 05:31:49;;;;;;;10.38;4.18;;;;;;;;;;5053107;28;20025;-75
2022/06/15 05:34:15;;;;;;;13.65;3.90;;;;;;;;;;5052848;28;20029;-74
2022/06/15 05:36:41;;;;;;;13.75;4.28;;;;;;;;;;5035344;28;20117;-75
2022/06/15 05:39:07;;;;;;;15.05;4.10;;;;;;;;;;5053854;28;20076;-74
2022/06/15 05:41:33;;;;;;;15.32;4.22;;;;;;;;;;5036533;28;20052;-75
2022/06/15 05:44:03;;;;;;;14.77;4.18;;;;;;;;;;5037265;28;20029;-74
2022/06/15 05:46:31;;;;;;;13.23;3.88;;;;;;;;;;5060132;28;20025;-74
2022/06/15 05:49:00;;;;;;;10.77;3.97;;;;;;;;;;5060010;28;20036;-74
2022/06/15 05:51:26;;;;;;;11.65;3.63;;;;;;;;;;5043611;28;20029;-74
2022/06/15 05:53:52;;;;;;;15.30;5.72;;;;;;;;;;5061217;28;20036;-75
2022/06/15 05:56:18;;;;;;;15.60;4.85;;;;;;;;;;5058920;28;20124;-74
2022/06/15 05:58:45;;;;;;;10.90;3.25;;;;;;;;;;5039980;28;20082;-74
2022/06/15 06:01:13;;;;;;;13.23;3.65;;;;;;;;;;5059008;28;20377;-74
2022/06/15 06:03:39;;;;;;;9.85;3.20;;;;;;;;;;5058607;28;20486;-76
2022/06/15 06:06:05;;;;;;;12.98;3.83;;;;;;;;;;5061044;28;20103;-74
2022/06/15 06:08:31;;;;;;;8.20;2.95;;;;;;;;;;5053463;28;20040;-74
2022/06/15 06:10:57;;;;;;;8.55;2.35;;;;;;;;;;5052259;28;20025;-74
2022/06/15 06:13:23;;;;;;;8.23;2.00;;;;;;;;;;5052341;28;20036;-73
2022/06/15 06:15:49;;;;;;;8.25;2.45;;;;;;;;;;5051707;28;20021;-75
2022/06/15 06:18:15;;;;;;;8.95;2.03;;;;;;;;;;5052954;28;20040;-74
2022/06/15 06:20:41;;;;;;;10.95;2.42;;;;;;;;;;5052503;28;20032;-75
2022/06/15 06:23:07;;;;;;;8.63;2.10;;;;;;;;;;5052905;28;20036;-75
2022/06/15 06:25:33;;;;;;;10.27;2.75;;;;;;;;;;5052636;28;20430;-74
2022/06/15 06:28:00;;;;;;;10.45;2.80;;;;;;;;;;5053809;28;20029;-75
2022/06/15 06:30:25;;;;;;;11.85;3.05;;;;;;;;;;5050519;28;20402;-74
2022/06/15 06:32:51;;;;;;;12.40;2.97;;;;;;;;;;5074950;28;20063;-74
2022/06/15 06:35:17;;;;;;;14.25;3.45;;;;;;;;;;5074903;28;20074;-73
2022/06/15 06:37:44;;;;;;;17.23;3.58;;;;;;;;;;5075511;28;20011;-75
2022/06/15 06:40:12;;;;;;;11.75;3.42;;;;;;;;;;5068401;28;20025;-75
2022/06/15 06:42:38;;;;;;;16.38;2.97;;;;;;;;;;5062928;28;20045;-75
2022/06/15 06:45:04;;;;;;;11.98;2.90;;;;;;;;;;5059532;28;20040;-75
2022/06/15 06:47:30;;;;;;;10.27;2.60;;;;;;;;;;5059003;28;20116;-75
2022/06/15 06:49:56;;;;;;;12.63;3.10;;;;;;;;;;5058394;28;20063;-75
2022/06/15 06:52:22;;;;;;;13.00;2.78;;;;;;;;;;5056062;28;20033;-74
2022/06/15 06:54:48;;;;;;;15.25;2.92;;;;;;;;;;5056346;28;20032;-75
2022/06/15 06:57:14;;;;;;;10.55;2.83;;;;;;;;;;5037881;28;20035;-75
2022/06/15 06:59:41;;;;;;;13.35;2.65;;;;;;;;;;5055284;28;20464;-75
2022/06/15 07:02:09;;;;;;;9.63;2.60;;;;;;;;;;5054910;28;20032;-75
2022/06/15 07:04:35;;;;;;;6.63;2.45;;;;;;;;;;5037337;28;20375;-74
2022/06/15 07:07:01;;;;;;;13.63;4.70;;;;;;;;;;5054658;28;20036;-74
2022/06/15 07:09:29;;;;;;;12.70;3.25;;;;;;;;;;5055056;28;20029;-76
2022/06/15 07:11:55;;;;;;;14.13;5.28;;;;;;;;;;5055424;28;20050;-76
2022/06/15 07:14:21;;;;;;;11.63;3.47;;;;;;;;;;5055654;28;20076;-74
2022/06/15 07:16:47;;;;;;;14.35;3.47;;;;;;;;;;5055101;28;20037;-75
2022/06/15 07:19:13;;;;;;;14.88;3.88;;;;;;;;;;5038198;28;20033;-74
2022/06/15 07:21:40;;;;;;;42.35;12.55;;;;;;;;;;5055534;28;20081;-74
2022/06/15 07:24:06;;;;;;;12.15;2.83;;;;;;;;;;5055267;28;20027;-75
2022/06/15 07:26:33;;;;;;;13.52;3.60;;;;;;;;;;5036772;28;20489;-75
2022/06/15 07:28:59;;;;;;;24.83;9.43;;;;;;;;;;5037461;28;20025;-74
2022/06/15 07:31:27;;;;;;;10.52;3.28;;;;;;;;;;5055243;28;20036;-75
2022/06/15 07:33:53;;;;;;;16.38;5.70;;;;;;;;;;5054819;28;20098;-75
2022/06/15 07:36:19;;;;;;;18.63;5.25;;;;;;;;;;5036608;28;20070;-75
2022/06/15 07:38:45;;;;;;;22.77;8.65;;;;;;;;;;5036398;28;20029;-74
2022/06/15 07:41:11;;;;;;;20.92;7.35;;;;;;;;;;5058604;28;20021;-75
2022/06/15 07:43:39;;;;;;;12.68;3.58;;;;;;;;;;5064098;28;20029;-76
2022/06/15 07:46:05;;;;;;;9.35;3.03;;;;;;;;;;5055940;28;20438;-75
2022/06/15 07:51:36;;;;;;;21.10;7.43;;;;;;;;;;5054613;28;20123;-74
2022/06/15 07:54:03;;;;;;;14.77;3.58;;;;;;;;;;5053943;28;20021;-75
2022/06/15 07:56:29;;;;;;;16.05;4.88;;;;;;;;;;5054227;28;20019;-74
2022/06/15 07:58:56;;;;;;;8.95;2.40;;;;;;;;;;5054072;28;20099;-75
2022/06/15 08:01:22;;;;;;;49.47;16.63;;;;;;;;;;5054014;28;20067;-74
2022/06/15 08:03:48;;;;;;;10.82;3.75;;;;;;;;;;5054182;28;20036;-74
2022/06/15 08:06:14;;;;;;;14.88;5.18;;;;;;;;;;5053942;28;20120;-75
2022/06/15 08:08:41;;;;;;;27.35;9.13;;;;;;;;;;5054117;28;20029;-74
2022/06/15 08:11:07;;;;;;;10.57;2.60;;;;;;;;;;5054155;28;20096;-74
2022/06/15 08:13:33;;;;;;;9.60;2.88;;;;;;;;;;5054321;28;20025;-74
2022/06/15 08:15:59;;;;;;;35.03;12.15;;;;;;;;;;5053822;28;20530;-74
2022/06/15 08:18:27;;;;;;;42.53;14.52;;;;;;;;;;5054760;28;20025;-75
2022/06/15 08:20:56;;;;;;;20.60;5.82;;;;;;;;;;5054388;28;20052;-75
2022/06/15 08:23:23;;;;;;;8.98;2.78;;;;;;;;;;5054332;28;20521;-73
2022/06/15 08:25:51;;;;;;;9.52;2.55;;;;;;;;;;5053393;28;20029;-74
2022/06/15 08:28:19;;;;;;;12.95;3.50;;;;;;;;;;5053768;28;20028;-73
2022/06/15 08:30:45;;;;;;;11.55;3.90;;;;;;;;;;5035792;28;20029;-74
2022/06/15 08:33:11;;;;;;;10.85;3.33;;;;;;;;;;5053577;28;20036;-74
2022/06/15 08:35:38;;;;;;;7.38;2.90;;;;;;;;;;5035304;28;20474;-75
2022/06/15 08:38:06;;;;;;;13.73;4.53;;;;;;;;;;5053416;28;20025;-75
2022/06/15 08:40:34;;;;;;;10.45;3.70;;;;;;;;;;5035644;28;20032;-74
2022/06/15 08:43:02;;;;;;;11.32;5.53;;;;;;;;;;5053264;28;20079;-76
2022/06/15 08:45:37;;;;;;;15.93;4.57;;;;;;;;;;5053571;28;20433;-73
2022/06/15 08:48:22;;;;;;;10.45;3.75;;;;;;;;;;5035408;28;20490;-75
2022/06/15 08:51:12;;;;;;;12.35;3.45;;;;;;;;;;5052890;28;20243;-75
2022/06/15 08:53:52;;;;;;;13.43;3.40;;;;;;;;;;5055156;28;20426;-75
2022/06/15 08:56:21;;;;;;;9.85;3.00;;;;;;;;;;5036888;28;20508;-76
2022/06/15 08:58:47;;;;;;;10.23;3.42;;;;;;;;;;5055863;28;20031;-76
2022/06/15 09:01:15;;;;;;;14.43;7.45;;;;;;;;;;5056950;28;20108;-74
2022/06/15 09:04:11;;;;;;;9.15;3.20;;;;;;;;;;5058569;28;20025;-74
2022/06/15 09:06:36;;;;;;;;;;;;;;;;;;4971723;28;20058;-75
2022/06/15 09:09:15;;;;;;;10.65;2.83;;;;;;;;;;5056588;28;19908;-75
2022/06/15 09:11:50;;;;;;;9.25;2.63;;;;;;;;;;5055453;28;20051;-75
2022/06/15 09:14:16;;;;;;;9.35;2.47;;;;;;;;;;5054144;28;20127;-74
2022/06/15 09:16:56;;;;;;;7.75;2.50;;;;;;;;;;5055289;28;20087;-75
2022/06/15 09:19:29;;;;;;;7.55;2.50;;;;;;;;;;5054275;28;20021;-75
2022/06/15 09:21:58;;;;;;;12.80;2.03;;;;;;;;;;5054383;28;20021;-74
2022/06/15 09:24:40;;;;;;;7.80;1.90;;;;;;;;;;5053245;28;20082;-74
2022/06/15 09:27:08;;;;;;;7.85;2.72;;;;;;;;;;5034493;28;20115;-75
2022/06/15 09:29:44;;;;;;;9.35;1.95;;;;;;;;;;5052682;28;20025;-74
2022/06/15 09:32:20;;;;;;;9.15;2.40;;;;;;;;;;5052620;28;20032;-75
2022/06/15 09:34:59;;;;;;;8.98;2.20;;;;;;;;;;5034503;28;20025;-75
2022/06/15 09:37:27;;;;;;;7.65;2.42;;;;;;;;;;5052178;28;20020;-75
2022/06/15 09:39:53;;;;;;;6.72;2.38;;;;;;;;;;5052406;28;20025;-75
2022/06/15 09:42:23;;;;;;;7.00;2.15;;;;;;;;;;5052332;28;20052;-76
2022/06/15 09:45:11;;;;;;;9.60;2.25;;;;;;;;;;5052198;28;20055;-74
2022/06/15 09:47:41;;;;;;;9.05;2.95;;;;;;;;;;5051883;28;20028;-74
2022/06/15 09:50:07;;;;;;;11.93;4.68;;;;;;;;;;5052915;28;20083;-75
2022/06/15 09:52:59;;;;;;;7.43;2.30;;;;;;;;;;5052110;28;20028;-75
2022/06/15 09:55:28;;;;;;;45.42;24.55;;;;;;;;;;5014481;28;20048;-76
2022/06/15 09:57:54;;;;;;;14.00;7.53;;;;;;;;;;5052200;28;20502;-76
2022/06/15 10:00:20;;;;;;;16.98;7.25;;;;;;;;;;5052142;28;20359;-74
2022/06/15 10:02:47;;;;;;;9.73;2.70;;;;;;;;;;5054075;28;20394;-75
2022/06/15 10:05:23;;;;;;;5.05;2.40;;;;;;;;;;5038349;28;20036;-76
2022/06/15 10:07:49;;;;;;;9.05;2.72;;;;;;;;;;5056056;28;20029;-75
2022/06/15 10:10:23;;;;;;;7.05;2.20;;;;;;;;;;5056451;28;20025;-75
2022/06/15 10:12:59;;;;;;;10.00;2.97;;;;;;;;;;5056456;28;20811;-75
2022/06/15 10:15:34;;;;;;;11.65;2.97;;;;;;;;;;5056035;28;20042;-74
2022/06/15 10:18:21;;;;;;;9.18;3.03;;;;;;;;;;5056216;28;20032;-74
2022/06/15 10:20:56;;;;;;;10.68;2.83;;;;;;;;;;5055890;28;20024;-74
2022/06/15 10:23:24;;;;;;;6.55;2.40;;;;;;;;;;5039881;28;20037;-78
2022/06/15 10:25:55;;;;;;;8.77;2.15;;;;;;;;;;5056973;28;20474;-74
2022/06/15 10:28:25;;;;;;;9.73;3.33;;;;;;;;;;5055862;28;20102;-74
2022/06/15 10:31:02;;;;;;;8.32;2.25;;;;;;;;;;5055525;28;20118;-75
2022/06/15 10:33:46;;;;;;;11.70;2.63;;;;;;;;;;5037471;28;20028;-74
2022/06/15 10:36:31;;;;;;;9.48;2.20;;;;;;;;;;5055424;28;20100;-75
2022/06/15 10:39:00;;;;;;;8.98;1.90;;;;;;;;;;5056022;28;20021;-75
2022/06/15 10:41:45;;;;;;;5.65;2.03;;;;;;;;;;5037704;28;20040;-75
2022/06/15 10:44:23;;;;;;;10.35;2.65;;;;;;;;;;5037543;28;20049;-75
2022/06/15 10:46:51;;;;;;;17.30;3.58;;;;;;;;;;5055237;28;20078;-74
2022/06/15 10:49:17;;;;;;;6.57;2.03;;;;;;;;;;5055427;28;20021;-77
2022/06/15 10:51:44;;;;;;;11.65;2.90;;;;;;;;;;5055415;28;20033;-75
2022/06/15 10:54:22;;;;;;;15.07;2.72;;;;;;;;;;5056348;28;20607;-76
2022/06/15 11:02:22;;;;;;;7.40;2.05;;;;;;;;;;5056941;28;20036;-76
2022/06/15 11:04:48;;;;;;;10.75;3.92;;;;;;;;;;5056608;28;20406;-75
2022/06/15 11:07:37;;;;;;;7.70;2.40;;;;;;;;;;5038403;28;20025;-75
2022/06/15 11:10:09;;;;;;;9.85;1.90;;;;;;;;;;5044328;28;20041;-77
2022/06/15 11:12:37;;;;;;;8.85;2.00;;;;;;;;;;5037666;28;20531;-75
2022/06/15 11:15:06;;;;;;;17.00;5.65;;;;;;;;;;5054241;28;20021;-75
2022/06/15 11:18:01;;;;;;;9.98;2.88;;;;;;;;;;5069193;22;20049;-70
2022/06/15 11:20:27;;;;;;;;;;;;;;;;;;5056533;28;20048;-69
2022/06/15 11:22:55;;;;;;;8.52;1.88;;;;;;;;;;5055464;28;20369;-71
2022/06/15 11:25:26;;;;;;;10.55;2.30;;;;;;;;;;5054563;28;20029;-69
2022/06/15 11:28:04;;;;;;;10.25;2.50;;;;;;;;;;5054896;28;20537;-69
2022/06/15 11:30:43;;;;;;;11.52;2.92;;;;;;;;;;5054866;28;20040;-70
2022/06/15 11:33:29;;;;;;;6.45;2.03;;;;;;;;;;5055599;28;20116;-70
2022/06/15 11:35:58;;;;;;;6.95;1.83;;;;;;;;;;5053939;28;20055;-69
2022/06/15 11:38:27;;;;;;;8.93;2.20;;;;;;;;;;5055647;28;20478;-73
2022/06/15 11:40:55;;;;;;;10.40;2.30;;;;;;;;;;5054566;28;20052;-70
2022/06/15 11:43:27;;;;;;;5.70;1.60;;;;;;;;;;5055157;28;20040;-71
2022/06/15 11:45:56;;;;;;;10.15;2.40;;;;;;;;;;5054911;28;20029;-70
2022/06/15 11:48:29;;;;;;;5.72;2.00;;;;;;;;;;5055715;28;20510;-73
2022/06/15 11:51:04;;;;;;;9.93;2.05;;;;;;;;;;5055619;28;20031;-71
2022/06/15 11:53:36;;;;;;;7.38;1.80;;;;;;;;;;5056079;28;20071;-72
2022/06/15 11:56:11;;;;;;;9.50;1.77;;;;;;;;;;5054983;28;20026;-70
2022/06/15 11:58:55;;;;;;;6.05;1.60;;;;;;;;;;5054940;28;20021;-72
2022/06/15 12:01:30;;;;;;;6.72;2.28;;;;;;;;;;5054330;28;20461;-70
2022/06/15 12:04:08;;;;;;;5.95;1.98;;;;;;;;;;5052904;28;20119;-71
2022/06/15 12:06:43;;;;;;;4.35;1.85;;;;;;;;;;5054177;28;20489;-72
2022/06/15 12:09:36;;;;;;;8.07;2.33;;;;;;;;;;5054236;28;20470;-71
2022/06/15 12:12:39;;;;;;;6.03;1.67;;;;;;;;;;5051555;28;20577;-73
2022/06/15 12:15:08;;;;;;;7.72;2.47;;;;;;;;;;5059108;28;20029;-71
2022/06/15 12:17:46;;;;;;;8.30;2.50;;;;;;;;;;5055337;28;20083;-69
2022/06/15 12:20:21;;;;;;;9.48;2.35;;;;;;;;;;5056340;28;20086;-70
2022/06/15 12:23:06;;;;;;;5.78;1.95;;;;;;;;;;5054925;28;20401;-70
2022/06/15 12:25:56;;;;;;;8.75;2.40;;;;;;;;;;5054453;28;20049;-71
2022/06/15 12:28:33;;;;;;;10.52;2.35;;;;;;;;;;5055429;28;20398;-70
2022/06/15 12:31:18;;;;;;;7.20;2.00;;;;;;;;;;5052065;28;20023;-72
2022/06/15 12:33:46;;;;;;;11.00;2.45;;;;;;;;;;5053823;28;20112;-70
2022/06/15 12:36:28;;;;;;;4.15;1.80;;;;;;;;;;5053395;28;20104;-71
2022/06/15 12:39:00;;;;;;;9.70;2.10;;;;;;;;;;5052333;28;20060;-70
2022/06/15 12:44:38;;;;;;;6.60;2.15;;;;;;;;;;5052988;28;20147;-71
2022/06/15 12:47:04;;;;;;;10.55;3.55;;;;;;;;;;5041906;28;20041;-71
2022/06/15 12:49:36;;;;;;;6.82;2.05;;;;;;;;;;5052751;28;20414;-70
2022/06/15 12:52:14;;;;;;;7.97;2.10;;;;;;;;;;5052961;28;20694;-70
2022/06/15 12:54:50;;;;;;;6.22;2.17;;;;;;;;;;5053012;28;20024;-73
2022/06/15 12:57:34;;;;;;;7.65;2.35;;;;;;;;;;5052264;28;20025;-70
2022/06/15 13:00:06;;;;;;;7.60;2.20;;;;;;;;;;5052467;28;20399;-70
2022/06/15 13:02:37;;;;;;;7.90;2.15;;;;;;;;;;5056247;28;20024;-70
2022/06/15 13:05:20;;;;;;;6.93;2.40;;;;;;;;;;5053279;28;20025;-70
2022/06/15 13:08:06;;;;;;;7.18;2.10;;;;;;;;;;5052826;28;20017;-70
2022/06/15 13:10:32;;;;;;;15.27;6.47;;;;;;;;;;5052840;28;20652;-71
2022/06/15 13:13:01;;;;;;;8.18;2.63;;;;;;;;;;5052529;28;20033;-72
2022/06/15 13:15:27;;;;;;;10.02;2.20;;;;;;;;;;5052068;28;20098;-70
2022/06/15 13:18:08;;;;;;;9.32;2.22;;;;;;;;;;5051723;28;20033;-70
2022/06/15 13:20:46;;;;;;;9.73;2.15;;;;;;;;;;5051902;28;20025;-71
2022/06/15 13:23:39;;;;;;;6.85;2.13;;;;;;;;;;5052674;28;20028;-71
2022/06/15 13:26:08;;;;;;;7.82;1.90;;;;;;;;;;5046376;28;20443;-71
2022/06/15 13:28:36;;;;;;;8.43;1.88;;;;;;;;;;5057297;28;20029;-71
2022/06/15 13:31:05;;;;;;;5.35;1.98;;;;;;;;;;5051907;28;20080;-71
2022/06/15 13:33:46;;;;;;;11.82;1.92;;;;;;;;;;5051371;28;20024;-71
2022/06/15 13:36:12;;;;;;;6.68;1.63;;;;;;;;;;5050901;28;20063;-71
2022/06/15 13:38:39;;;;;;;6.15;2.20;;;;;;;;;;5051313;28;20474;-70
2022/06/15 13:41:05;;;;;;;5.93;1.70;;;;;;;;;;5051481;28;20066;-70
2022/06/15 13:43:51;;;;;;;4.90;1.65;;;;;;;;;;5052246;28;20088;-69
2022/06/15 13:46:27;;;;;;;6.65;1.80;;;;;;;;;;5040799;28;20048;-70
2022/06/15 13:49:04;;;;;;;9.43;2.00;;;;;;;;;;5051473;28;20029;-70
2022/06/15 13:51:40;;;;;;;7.20;1.73;;;;;;;;;;5052290;28;20100;-73
2022/06/15 13:54:25;;;;;;;7.75;2.22;;;;;;;;;;5052573;28;20036;-71
2022/06/15 13:56:54;;;;;;;8.77;2.50;;;;;;;;;;5050803;28;20032;-69
2022/06/15 13:59:20;;;;;;;3.78;1.80;;;;;;;;;;5052107;28;20025;-69
2022/06/15 14:01:52;;;;;;;10.38;2.45;;;;;;;;;;5050492;28;20032;-70
2022/06/15 14:04:23;;;;;;;5.93;1.55;;;;;;;;;;5051648;28;20082;-69
2022/06/15 14:07:07;;;;;;;5.03;2.30;;;;;;;;;;5050969;28;20029;-70
2022/06/15 14:09:44;;;;;;;12.00;8.32;;;;;;;;;;5051218;28;20033;-71
2022/06/15 14:12:13;;;;;;;7.63;2.17;;;;;;;;;;5051569;28;20035;-70
2022/06/15 14:14:57;;;;;;;4.72;2.03;;;;;;;;;;5050173;28;20120;-72
2022/06/15 14:17:29;;;;;;;5.93;2.13;;;;;;;;;;5052499;28;20048;-70
2022/06/15 14:19:59;;;;;;;6.00;2.00;;;;;;;;;;5053781;28;20100;-70
2022/06/15 14:22:25;;;;;;;9.80;2.50;;;;;;;;;;5051829;28;20021;-70
2022/06/15 14:25:05;;;;;;;10.95;2.10;;;;;;;;;;5052074;28;20029;-71
2022/06/15 14:27:34;;;;;;;6.90;2.05;;;;;;;;;;5050273;28;20021;-71
2022/06/15 14:30:02;;;;;;;7.53;2.38;;;;;;;;;;5050949;28;20060;-69
2022/06/15 14:32:34;;;;;;;10.93;2.80;;;;;;;;;;5050873;28;20033;-71
2022/06/15 14:35:20;;;;;;;5.25;1.88;;;;;;;;;;5050913;28;20086;-71
2022/06/15 14:37:54;;;;;;;7.00;2.22;;;;;;;;;;5051676;28;20059;-71
2022/06/15 14:40:27;;;;;;;7.82;2.00;;;;;;;;;;5052895;28;20078;-75
2022/06/15 14:42:56;;;;;;;11.57;2.60;;;;;;;;;;5051253;28;20116;-71
2022/06/15 14:45:28;;;;;;;8.85;2.78;;;;;;;;;;5051276;28;20393;-70
2022/06/15 14:47:55;;;;;;;11.02;3.33;;;;;;;;;;5051968;28;20036;-73
2022/06/15 14:50:22;;;;;;;4.65;1.90;;;;;;;;;;5055905;28;20179;-72
2022/06/15 14:52:48;;;;;;;6.90;2.00;;;;;;;;;;5057610;28;20017;-73
2022/06/15 14:55:19;;;;;;;8.38;2.30;;;;;;;;;;5061131;28;20025;-70
2022/06/15 14:57:45;;;;;;;9.27;2.03;;;;;;;;;;5056112;28;20498;-70
2022/06/15 15:00:31;;;;;;;8.50;2.28;;;;;;;;;;5055800;28;20032;-71
2022/06/15 15:02:57;;;;;;;6.03;2.08;;;;;;;;;;5055911;28;20017;-71
2022/06/15 15:05:26;;;;;;;7.35;2.63;;;;;;;;;;5055730;28;20036;-70
2022/06/15 15:08:12;;;;;;;10.13;2.40;;;;;;;;;;5055455;28;20040;-72